createdAt,value
2019-05-26T00:00:04.511Z,990.23
2019-05-26T00:01:04.643Z,990.25
2019-05-26T00:02:04.767Z,990.23
2019-05-26T00:03:04.903Z,990.26
2019-05-26T00:04:05.031Z,990.25
2019-05-26T00:05:05.164Z,990.27
2019-05-26T00:06:05.288Z,990.24
2019-05-26T00:07:05.420Z,990.23
2019-05-26T00:08:05.561Z,990.17
2019-05-26T00:09:05.687Z,990.21
2019-05-26T00:10:05.832Z,990.18
2019-05-26T00:11:05.940Z,990.15
2019-05-26T00:12:06.067Z,990.15
2019-05-26T00:13:06.207Z,990.16
2019-05-26T00:14:06.345Z,990.11
2019-05-26T00:15:06.471Z,990.09
2019-05-26T00:16:06.597Z,990.10
2019-05-26T00:17:06.712Z,990.08
2019-05-26T00:18:06.853Z,990.07
2019-05-26T00:19:06.977Z,990.10
2019-05-26T00:20:07.103Z,990.09
2019-05-26T00:21:07.227Z,990.06
2019-05-26T00:22:07.380Z,990.04
2019-05-26T00:23:07.493Z,990.02
2019-05-26T00:24:07.627Z,990.02
2019-05-26T00:25:07.755Z,989.99
2019-05-26T00:26:07.884Z,990.01
2019-05-26T00:27:07.994Z,990.02
2019-05-26T00:28:08.134Z,990.01
2019-05-26T00:29:08.267Z,990.02
2019-05-26T00:30:08.387Z,989.99
2019-05-26T00:31:08.526Z,989.99
2019-05-26T00:32:08.659Z,990.00
2019-05-26T00:33:08.788Z,989.98
2019-05-26T00:34:08.917Z,989.96
2019-05-26T00:35:09.112Z,989.95
2019-05-26T00:36:09.258Z,989.90
2019-05-26T00:37:09.316Z,989.93
2019-05-26T00:38:09.437Z,989.90
2019-05-26T00:39:09.566Z,989.90
2019-05-26T00:40:09.696Z,989.96
2019-05-26T00:41:09.820Z,989.94
2019-05-26T00:42:09.999Z,990.03
2019-05-26T00:43:10.106Z,990.00
2019-05-26T00:44:10.227Z,989.99
2019-05-26T00:45:10.375Z,990.00
2019-05-26T00:46:10.520Z,990.00
2019-05-26T00:47:10.633Z,989.98
2019-05-26T00:48:10.774Z,990.00
2019-05-26T00:49:10.898Z,990.05
2019-05-26T00:50:11.093Z,990.07
2019-05-26T00:51:11.182Z,990.11
2019-05-26T00:52:11.310Z,990.10
2019-05-26T00:53:11.452Z,990.09
2019-05-26T00:54:11.604Z,990.16
2019-05-26T00:55:11.711Z,990.17
2019-05-26T00:56:11.837Z,990.17
2019-05-26T00:57:11.972Z,990.21
2019-05-26T00:58:12.123Z,990.18
2019-05-26T00:59:12.247Z,990.17
2019-05-26T01:00:12.382Z,990.17
2019-05-26T01:01:12.508Z,990.18
2019-05-26T01:02:12.675Z,990.18
2019-05-26T01:03:12.786Z,990.22
2019-05-26T01:04:12.909Z,990.24
2019-05-26T01:05:13.070Z,990.22
2019-05-26T01:06:13.186Z,990.20
2019-05-26T01:07:13.320Z,990.25
2019-05-26T01:08:13.441Z,990.21
2019-05-26T01:09:13.600Z,990.23
2019-05-26T01:10:13.716Z,990.24
2019-05-26T01:11:13.840Z,990.25
2019-05-26T01:12:13.970Z,990.26
2019-05-26T01:13:14.115Z,990.28
2019-05-26T01:14:14.228Z,990.24
2019-05-26T01:15:14.367Z,990.23
2019-05-26T01:16:14.503Z,990.25
2019-05-26T01:17:14.629Z,990.22
2019-05-26T01:18:14.758Z,990.23
2019-05-26T01:19:14.894Z,990.25
2019-05-26T01:20:15.022Z,990.23
2019-05-26T01:21:15.152Z,990.20
2019-05-26T01:22:15.283Z,990.22
2019-05-26T01:23:15.425Z,990.17
2019-05-26T01:24:15.562Z,990.17
2019-05-26T01:25:15.688Z,990.17
2019-05-26T01:26:15.830Z,990.16
2019-05-26T01:27:16.007Z,990.17
2019-05-26T01:28:16.100Z,990.15
2019-05-26T01:29:16.209Z,990.12
2019-05-26T01:30:16.327Z,990.13
2019-05-26T01:31:16.476Z,990.14
2019-05-26T01:32:16.606Z,990.10
2019-05-26T01:33:16.768Z,990.08
2019-05-26T01:34:16.855Z,990.06
2019-05-26T01:35:16.998Z,990.05
2019-05-26T01:36:17.125Z,990.08
2019-05-26T01:37:17.253Z,990.08
2019-05-26T01:38:23.859Z,990.06
2019-05-26T01:39:17.527Z,990.08
2019-05-26T01:40:17.652Z,990.10
2019-05-26T01:41:17.793Z,990.08
2019-05-26T01:42:17.919Z,990.11
2019-05-26T01:43:18.057Z,990.10
2019-05-26T01:44:18.187Z,990.14
2019-05-26T01:45:18.312Z,990.15
2019-05-26T01:46:18.530Z,990.17
2019-05-26T01:47:18.596Z,990.21
2019-05-26T01:48:18.718Z,990.18
2019-05-26T01:49:18.854Z,990.24
2019-05-26T01:50:19.006Z,990.22
2019-05-26T01:51:19.132Z,990.25
2019-05-26T01:52:19.275Z,990.24
2019-05-26T01:53:19.396Z,990.25
2019-05-26T01:54:19.548Z,990.27
2019-05-26T01:55:19.740Z,990.29
2019-05-26T01:56:19.852Z,990.29
2019-05-26T01:57:19.985Z,990.25
2019-05-26T01:58:20.110Z,990.23
2019-05-26T01:59:20.232Z,990.22
2019-05-26T02:00:20.366Z,990.25
2019-05-26T02:01:20.515Z,990.27
2019-05-26T02:02:20.660Z,990.29
2019-05-26T02:03:20.768Z,990.24
2019-05-26T02:04:20.900Z,990.26
2019-05-26T02:05:21.052Z,990.26
2019-05-26T02:06:21.176Z,990.27
2019-05-26T02:07:21.320Z,990.22
2019-05-26T02:08:21.439Z,990.22
2019-05-26T02:09:21.567Z,990.21
2019-05-26T02:10:21.705Z,990.17
2019-05-26T02:11:21.832Z,990.22
2019-05-26T02:12:21.976Z,990.11
2019-05-26T02:13:22.209Z,990.13
2019-05-26T02:14:22.222Z,990.09
2019-05-26T02:15:22.341Z,990.09
2019-05-26T02:16:22.493Z,990.04
2019-05-26T02:17:22.608Z,990.06
2019-05-26T02:18:22.735Z,990.08
2019-05-26T02:19:22.874Z,990.07
2019-05-26T02:20:23.007Z,990.06
2019-05-26T02:21:23.184Z,990.06
2019-05-26T02:22:23.314Z,990.09
2019-05-26T02:23:23.441Z,990.08
2019-05-26T02:24:23.572Z,990.06
2019-05-26T02:25:23.703Z,990.08
2019-05-26T02:26:23.838Z,990.04
2019-05-26T02:27:23.983Z,990.05
2019-05-26T02:28:24.106Z,990.05
2019-05-26T02:29:24.242Z,990.08
2019-05-26T02:30:24.376Z,990.06
2019-05-26T02:31:24.523Z,990.04
2019-05-26T02:32:24.654Z,990.04
2019-05-26T02:33:24.775Z,990.04
2019-05-26T02:34:24.957Z,990.04
2019-05-26T02:35:25.077Z,990.01
2019-05-26T02:36:25.199Z,990.02
2019-05-26T02:37:25.346Z,990.02
2019-05-26T02:38:26.487Z,990.01
2019-05-26T02:39:25.595Z,990.03
2019-05-26T02:40:25.738Z,990.01
2019-05-26T02:41:25.856Z,990.00
2019-05-26T02:42:25.991Z,989.99
2019-05-26T02:43:26.110Z,989.98
2019-05-26T02:44:26.284Z,989.95
2019-05-26T02:45:26.498Z,989.93
2019-05-26T02:46:26.521Z,989.93
2019-05-26T02:47:26.652Z,989.94
2019-05-26T02:48:26.782Z,989.86
2019-05-26T02:49:26.907Z,989.89
2019-05-26T02:50:27.057Z,989.87
2019-05-26T02:51:27.193Z,989.85
2019-05-26T02:52:27.307Z,989.86
2019-05-26T02:53:27.473Z,989.86
2019-05-26T02:54:27.593Z,989.91
2019-05-26T02:55:27.722Z,989.91
2019-05-26T02:56:27.854Z,989.94
2019-05-26T02:57:27.996Z,989.94
2019-05-26T02:58:28.120Z,989.97
2019-05-26T02:59:28.247Z,989.94
2019-05-26T03:00:28.378Z,989.97
2019-05-26T03:01:28.524Z,989.99
2019-05-26T03:02:28.660Z,989.98
2019-05-26T03:03:28.782Z,990.02
2019-05-26T03:04:28.912Z,990.03
2019-05-26T03:05:29.064Z,990.05
2019-05-26T03:06:29.193Z,990.03
2019-05-26T03:07:29.318Z,990.00
2019-05-26T03:08:29.480Z,989.99
2019-05-26T03:09:29.605Z,989.99
2019-05-26T03:10:29.727Z,989.95
2019-05-26T03:11:29.869Z,989.98
2019-05-26T03:12:30.014Z,989.95
2019-05-26T03:13:30.148Z,989.94
2019-05-26T03:14:30.272Z,989.95
2019-05-26T03:15:30.395Z,989.96
2019-05-26T03:16:30.536Z,989.94
2019-05-26T03:17:30.667Z,989.93
2019-05-26T03:18:30.789Z,989.91
2019-05-26T03:19:30.919Z,989.87
2019-05-26T03:20:31.064Z,989.87
2019-05-26T03:21:31.185Z,989.87
2019-05-26T03:22:31.315Z,989.88
2019-05-26T03:23:31.444Z,989.86
2019-05-26T03:24:31.603Z,989.85
2019-05-26T03:25:31.735Z,989.84
2019-05-26T03:26:31.861Z,989.86
2019-05-26T03:27:31.991Z,989.86
2019-05-26T03:28:32.131Z,989.89
2019-05-26T03:29:32.257Z,989.87
2019-05-26T03:30:32.381Z,989.88
2019-05-26T03:31:32.512Z,989.86
2019-05-26T03:32:32.644Z,989.87
2019-05-26T03:33:32.770Z,989.84
2019-05-26T03:34:32.911Z,989.86
2019-05-26T03:35:33.074Z,989.88
2019-05-26T03:36:33.177Z,989.88
2019-05-26T03:37:33.296Z,989.84
2019-05-26T03:38:33.427Z,989.89
2019-05-26T03:39:44.250Z,989.87
2019-05-26T03:40:33.790Z,989.88
2019-05-26T03:41:33.831Z,989.88
2019-05-26T03:42:33.946Z,989.86
2019-05-26T03:43:34.077Z,989.88
2019-05-26T03:44:34.219Z,989.92
2019-05-26T03:45:34.391Z,989.91
2019-05-26T03:46:34.513Z,989.89
2019-05-26T03:47:34.646Z,989.91
2019-05-26T03:48:34.793Z,989.93
2019-05-26T03:49:34.933Z,989.88
2019-05-26T03:50:35.082Z,989.90
2019-05-26T03:51:35.213Z,989.91
2019-05-26T03:52:35.333Z,989.92
2019-05-26T03:53:35.459Z,989.95
2019-05-26T03:54:35.594Z,989.94
2019-05-26T03:55:35.722Z,989.93
2019-05-26T03:56:35.902Z,989.91
2019-05-26T03:57:36.029Z,989.90
2019-05-26T03:58:36.153Z,989.89
2019-05-26T03:59:36.295Z,989.90
2019-05-26T04:00:36.431Z,989.90
2019-05-26T04:01:36.561Z,989.86
2019-05-26T04:02:36.692Z,989.83
2019-05-26T04:03:36.813Z,989.86
2019-05-26T04:04:36.938Z,989.85
2019-05-26T04:05:37.080Z,989.89
2019-05-26T04:06:37.204Z,989.89
2019-05-26T04:07:37.343Z,989.92
2019-05-26T04:08:37.469Z,989.94
2019-05-26T04:09:37.621Z,989.96
2019-05-26T04:10:37.744Z,989.96
2019-05-26T04:11:37.872Z,990.00
2019-05-26T04:12:38.006Z,990.00
2019-05-26T04:13:38.143Z,990.00
2019-05-26T04:14:38.277Z,990.00
2019-05-26T04:15:38.391Z,989.97
2019-05-26T04:16:38.527Z,989.98
2019-05-26T04:17:38.651Z,989.99
2019-05-26T04:18:38.789Z,989.96
2019-05-26T04:19:38.911Z,989.94
2019-05-26T04:20:39.066Z,989.96
2019-05-26T04:21:39.192Z,989.92
2019-05-26T04:22:39.332Z,989.90
2019-05-26T04:23:39.463Z,989.86
2019-05-26T04:24:39.590Z,989.87
2019-05-26T04:25:39.715Z,989.87
2019-05-26T04:26:39.850Z,989.84
2019-05-26T04:27:39.977Z,989.83
2019-05-26T04:28:40.117Z,989.85
2019-05-26T04:29:40.238Z,989.86
2019-05-26T04:30:40.352Z,989.83
2019-05-26T04:31:40.511Z,989.88
2019-05-26T04:32:40.648Z,989.83
2019-05-26T04:33:40.767Z,989.84
2019-05-26T04:34:40.884Z,989.82
2019-05-26T04:35:41.015Z,989.84
2019-05-26T04:36:41.146Z,989.84
2019-05-26T04:37:41.273Z,989.84
2019-05-26T04:38:41.409Z,989.86
2019-05-26T04:39:41.531Z,989.88
2019-05-26T04:40:41.656Z,989.91
2019-05-26T04:41:41.795Z,989.89
2019-05-26T04:42:41.917Z,989.92
2019-05-26T04:43:42.042Z,989.92
2019-05-26T04:44:42.175Z,989.92
2019-05-26T04:45:42.316Z,989.93
2019-05-26T04:46:42.443Z,990.00
2019-05-26T04:47:42.575Z,990.01
2019-05-26T04:48:42.700Z,989.99
2019-05-26T04:49:42.836Z,989.95
2019-05-26T04:50:42.959Z,989.97
2019-05-26T04:51:43.088Z,989.96
2019-05-26T04:53:02.041Z,989.94
2019-05-26T04:53:43.344Z,989.96
2019-05-26T04:54:43.472Z,989.93
2019-05-26T04:55:43.606Z,989.94
2019-05-26T04:56:43.738Z,989.93
2019-05-26T04:57:43.861Z,989.96
2019-05-26T04:58:43.996Z,989.94
2019-05-26T04:59:44.129Z,989.97
2019-05-26T05:00:44.262Z,989.97
2019-05-26T05:01:44.389Z,989.96
2019-05-26T05:02:44.516Z,989.94
2019-05-26T05:03:44.653Z,989.97
2019-05-26T05:04:44.776Z,989.97
2019-05-26T05:05:44.908Z,990.01
2019-05-26T05:06:45.028Z,989.97
2019-05-26T05:07:45.149Z,989.99
2019-05-26T05:08:45.272Z,989.96
2019-05-26T05:09:45.411Z,989.96
2019-05-26T05:10:45.528Z,989.97
2019-05-26T05:11:45.650Z,989.96
2019-05-26T05:12:45.788Z,989.92
2019-05-26T05:13:45.913Z,989.90
2019-05-26T05:14:46.038Z,989.88
2019-05-26T05:15:46.161Z,989.88
2019-05-26T05:16:46.283Z,989.91
2019-05-26T05:17:46.423Z,989.95
2019-05-26T05:18:46.567Z,989.92
2019-05-26T05:19:46.688Z,989.96
2019-05-26T05:20:46.817Z,989.92
2019-05-26T05:21:46.943Z,989.95
2019-05-26T05:22:47.086Z,989.94
2019-05-26T05:23:47.209Z,989.97
2019-05-26T05:24:47.345Z,989.93
2019-05-26T05:25:47.477Z,989.99
2019-05-26T05:26:47.621Z,989.98
2019-05-26T05:27:47.752Z,989.97
2019-05-26T05:28:47.895Z,989.98
2019-05-26T05:29:48.056Z,990.00
2019-05-26T05:30:48.191Z,989.99
2019-05-26T05:31:48.325Z,990.02
2019-05-26T05:32:48.448Z,990.01
2019-05-26T05:33:48.589Z,989.93
2019-05-26T05:34:48.710Z,990.00
2019-05-26T05:35:48.837Z,989.99
2019-05-26T05:36:49.019Z,989.96
2019-05-26T05:37:49.127Z,990.00
2019-05-26T05:38:49.244Z,989.99
2019-05-26T05:39:49.397Z,989.97
2019-05-26T05:40:58.961Z,989.97
2019-05-26T05:41:49.669Z,989.94
2019-05-26T05:42:49.799Z,989.94
2019-05-26T05:43:49.926Z,989.89
2019-05-26T05:44:50.068Z,989.96
2019-05-26T05:45:50.201Z,989.98
2019-05-26T05:46:50.329Z,989.94
2019-05-26T05:47:50.452Z,989.93
2019-05-26T05:48:50.602Z,989.94
2019-05-26T05:49:50.728Z,989.89
2019-05-26T05:50:50.921Z,989.91
2019-05-26T05:51:51.005Z,989.92
2019-05-26T05:52:51.150Z,989.88
2019-05-26T05:53:51.268Z,989.88
2019-05-26T05:54:51.405Z,989.88
2019-05-26T05:55:51.563Z,989.86
2019-05-26T05:56:55.313Z,989.92
2019-05-26T05:57:51.822Z,989.93
2019-05-26T05:58:51.958Z,989.91
2019-05-26T05:59:52.124Z,989.92
2019-05-26T06:00:52.252Z,989.92
2019-05-26T06:01:52.380Z,989.91
2019-05-26T06:02:52.550Z,989.89
2019-05-26T06:03:52.662Z,989.91
2019-05-26T06:04:52.799Z,989.90
2019-05-26T06:05:52.919Z,989.87
2019-05-26T06:06:53.069Z,989.84
2019-05-26T06:07:53.196Z,989.87
2019-05-26T06:08:53.324Z,989.86
2019-05-26T06:09:53.448Z,989.84
2019-05-26T06:10:53.592Z,989.83
2019-05-26T06:11:56.829Z,989.80
2019-05-26T06:12:53.859Z,989.78
2019-05-26T06:13:53.990Z,989.80
2019-05-26T06:14:54.138Z,989.82
2019-05-26T06:15:54.266Z,989.80
2019-05-26T06:16:54.399Z,989.86
2019-05-26T06:17:54.518Z,989.79
2019-05-26T06:18:54.667Z,989.84
2019-05-26T06:19:54.796Z,989.79
2019-05-26T06:20:54.914Z,989.81
2019-05-26T06:21:55.047Z,989.81
2019-05-26T06:22:55.178Z,989.82
2019-05-26T06:23:55.296Z,989.81
2019-05-26T06:24:55.440Z,989.79
2019-05-26T06:25:55.567Z,989.79
2019-05-26T06:26:55.697Z,989.80
2019-05-26T06:27:55.949Z,989.79
2019-05-26T06:28:55.946Z,989.76
2019-05-26T06:29:59.231Z,989.77
2019-05-26T06:30:56.207Z,989.79
2019-05-26T06:31:56.874Z,989.75
2019-05-26T06:32:56.463Z,989.75
2019-05-26T06:33:56.605Z,989.75
2019-05-26T06:34:56.730Z,989.78
2019-05-26T06:35:56.873Z,989.75
2019-05-26T06:36:56.996Z,989.75
2019-05-26T06:37:57.117Z,989.76
2019-05-26T06:38:57.247Z,989.76
2019-05-26T06:39:57.385Z,989.76
2019-05-26T06:40:57.510Z,989.76
2019-05-26T06:41:57.635Z,989.81
2019-05-26T06:42:57.769Z,989.78
2019-05-26T06:43:57.901Z,989.78
2019-05-26T06:44:58.017Z,989.76
2019-05-26T06:45:58.155Z,989.78
2019-05-26T06:46:58.282Z,989.78
2019-05-26T06:47:58.409Z,989.77
2019-05-26T06:48:58.544Z,989.76
2019-05-26T06:49:58.672Z,989.78
2019-05-26T06:50:58.813Z,989.76
2019-05-26T06:51:58.933Z,989.77
2019-05-26T06:52:59.071Z,989.75
2019-05-26T06:53:59.195Z,989.77
2019-05-26T06:54:59.324Z,989.75
2019-05-26T06:55:59.457Z,989.73
2019-05-26T06:56:59.586Z,989.71
2019-05-26T06:57:59.711Z,989.69
2019-05-26T06:59:02.747Z,989.71
2019-05-26T06:59:59.983Z,989.69
2019-05-26T07:01:00.166Z,989.70
2019-05-26T07:02:00.257Z,989.70
2019-05-26T07:03:00.423Z,989.67
2019-05-26T07:04:00.599Z,989.67
2019-05-26T07:05:00.738Z,989.69
2019-05-26T07:06:00.857Z,989.68
2019-05-26T07:07:01.027Z,989.67
2019-05-26T07:08:01.158Z,989.67
2019-05-26T07:09:01.298Z,989.65
2019-05-26T07:10:01.424Z,989.66
2019-05-26T07:11:01.578Z,989.63
2019-05-26T07:12:01.710Z,989.66
2019-05-26T07:13:01.833Z,989.67
2019-05-26T07:14:01.959Z,989.66
2019-05-26T07:15:02.102Z,989.69
2019-05-26T07:16:02.229Z,989.63
2019-05-26T07:17:02.357Z,989.64
2019-05-26T07:18:02.498Z,989.67
2019-05-26T07:19:02.649Z,989.62
2019-05-26T07:20:02.774Z,989.64
2019-05-26T07:21:02.909Z,989.58
2019-05-26T07:22:03.059Z,989.65
2019-05-26T07:23:03.448Z,989.59
2019-05-26T07:24:03.310Z,989.56
2019-05-26T07:25:03.435Z,989.55
2019-05-26T07:26:03.564Z,989.57
2019-05-26T07:27:03.704Z,989.57
2019-05-26T07:28:03.832Z,989.55
2019-05-26T07:29:04.012Z,989.56
2019-05-26T07:30:04.129Z,989.55
2019-05-26T07:31:04.272Z,989.53
2019-05-26T07:32:04.398Z,989.50
2019-05-26T07:33:04.517Z,989.47
2019-05-26T07:34:04.651Z,989.49
2019-05-26T07:35:04.774Z,989.46
2019-05-26T07:36:04.919Z,989.51
2019-05-26T07:37:05.051Z,989.48
2019-05-26T07:38:05.184Z,989.47
2019-05-26T07:39:05.317Z,989.50
2019-05-26T07:40:05.453Z,989.48
2019-05-26T07:41:05.590Z,989.47
2019-05-26T07:42:10.746Z,989.44
2019-05-26T07:43:05.843Z,989.43
2019-05-26T07:44:05.981Z,989.41
2019-05-26T07:45:06.127Z,989.45
2019-05-26T07:46:06.236Z,989.50
2019-05-26T07:47:06.356Z,989.50
2019-05-26T07:48:06.486Z,989.45
2019-05-26T07:49:06.609Z,989.49
2019-05-26T07:50:06.746Z,989.47
2019-05-26T07:51:06.880Z,989.42
2019-05-26T07:52:07.009Z,989.44
2019-05-26T07:53:07.140Z,989.41
2019-05-26T07:54:07.281Z,989.42
2019-05-26T07:55:07.406Z,989.38
2019-05-26T07:56:07.535Z,989.33
2019-05-26T07:57:07.658Z,989.38
2019-05-26T07:58:07.800Z,989.35
2019-05-26T07:59:07.943Z,989.39
2019-05-26T08:00:08.078Z,989.43
2019-05-26T08:01:08.217Z,989.34
2019-05-26T08:02:08.352Z,989.36
2019-05-26T08:03:08.481Z,989.40
2019-05-26T08:04:08.607Z,989.34
2019-05-26T08:05:08.737Z,989.37
2019-05-26T08:06:08.862Z,989.33
2019-05-26T08:07:09.005Z,989.33
2019-05-26T08:08:12.947Z,989.44
2019-05-26T08:09:09.262Z,989.39
2019-05-26T08:10:09.404Z,989.37
2019-05-26T08:11:09.547Z,989.34
2019-05-26T08:12:24.873Z,989.35
2019-05-26T08:13:09.824Z,989.35
2019-05-26T08:14:09.957Z,989.42
2019-05-26T08:15:10.121Z,989.34
2019-05-26T08:16:10.250Z,989.30
2019-05-26T08:17:10.385Z,989.23
2019-05-26T08:18:10.536Z,989.28
2019-05-26T08:19:10.661Z,989.26
2019-05-26T08:20:10.894Z,989.24
2019-05-26T08:21:10.919Z,989.23
2019-05-26T08:22:11.078Z,989.26
2019-05-26T08:23:11.191Z,989.22
2019-05-26T08:24:11.320Z,989.25
2019-05-26T08:25:11.450Z,989.29
2019-05-26T08:26:11.614Z,989.21
2019-05-26T08:27:11.750Z,989.26
2019-05-26T08:28:11.868Z,989.19
2019-05-26T08:29:12.046Z,989.22
2019-05-26T08:30:12.178Z,989.13
2019-05-26T08:31:13.458Z,989.15
2019-05-26T08:32:15.086Z,989.18
2019-05-26T08:33:12.599Z,989.20
2019-05-26T08:34:12.735Z,989.26
2019-05-26T08:35:12.869Z,989.25
2019-05-26T08:36:13.020Z,989.25
2019-05-26T08:37:13.149Z,989.24
2019-05-26T08:38:13.275Z,989.26
2019-05-26T08:39:13.416Z,989.26
2019-05-26T08:40:13.547Z,989.18
2019-05-26T08:41:13.684Z,989.13
2019-05-26T08:42:26.416Z,989.11
2019-05-26T08:43:13.947Z,989.10
2019-05-26T08:44:14.080Z,989.13
2019-05-26T08:45:14.215Z,989.09
2019-05-26T08:46:14.345Z,989.12
2019-05-26T08:47:14.485Z,989.25
2019-05-26T08:48:14.619Z,989.13
2019-05-26T08:49:14.759Z,989.09
2019-05-26T08:50:14.895Z,989.19
2019-05-26T08:51:15.078Z,989.11
2019-05-26T08:52:15.156Z,989.10
2019-05-26T08:53:15.281Z,989.04
2019-05-26T08:54:15.410Z,989.08
2019-05-26T08:55:15.565Z,989.13
2019-05-26T08:56:15.682Z,989.14
2019-05-26T08:57:15.822Z,989.15
2019-05-26T08:58:15.960Z,989.07
2019-05-26T08:59:16.121Z,989.08
2019-05-26T09:00:16.246Z,989.05
2019-05-26T09:01:16.371Z,989.08
2019-05-26T09:02:16.538Z,989.10
2019-05-26T09:03:16.672Z,989.09
2019-05-26T09:04:16.811Z,989.14
2019-05-26T09:05:16.934Z,989.10
2019-05-26T09:06:17.091Z,989.11
2019-05-26T09:07:17.225Z,989.13
2019-05-26T09:08:17.387Z,989.12
2019-05-26T09:09:17.519Z,989.09
2019-05-26T09:10:17.633Z,989.22
2019-05-26T09:11:17.777Z,989.15
2019-05-26T09:12:17.924Z,989.22
2019-05-26T09:13:18.049Z,989.15
2019-05-26T09:14:18.185Z,989.13
2019-05-26T09:15:18.319Z,989.14
2019-05-26T09:16:18.451Z,989.07
2019-05-26T09:17:18.590Z,989.10
2019-05-26T09:18:18.720Z,989.12
2019-05-26T09:19:18.855Z,989.00
2019-05-26T09:20:18.990Z,989.05
2019-05-26T09:21:19.116Z,989.03
2019-05-26T09:22:19.247Z,988.97
2019-05-26T09:23:19.388Z,989.06
2019-05-26T09:24:19.522Z,989.01
2019-05-26T09:25:19.660Z,989.02
2019-05-26T09:26:19.785Z,988.99
2019-05-26T09:27:19.912Z,988.92
2019-05-26T09:28:20.044Z,988.96
2019-05-26T09:29:20.194Z,988.98
2019-05-26T09:30:20.627Z,988.94
2019-05-26T09:31:20.459Z,988.98
2019-05-26T09:32:20.603Z,988.99
2019-05-26T09:33:20.726Z,988.99
2019-05-26T09:34:20.877Z,988.94
2019-05-26T09:35:21.057Z,988.90
2019-05-26T09:36:21.189Z,988.90
2019-05-26T09:37:21.314Z,988.90
2019-05-26T09:38:21.504Z,988.89
2019-05-26T09:39:21.622Z,988.87
2019-05-26T09:40:21.764Z,988.85
2019-05-26T09:41:21.881Z,988.91
2019-05-26T09:42:22.565Z,988.93
2019-05-26T09:43:22.163Z,988.81
2019-05-26T09:44:22.306Z,988.84
2019-05-26T09:45:22.444Z,988.81
2019-05-26T09:46:22.573Z,988.90
2019-05-26T09:47:22.770Z,988.83
2019-05-26T09:48:22.786Z,988.75
2019-05-26T09:49:22.914Z,988.76
2019-05-26T09:50:23.066Z,988.76
2019-05-26T09:51:23.199Z,988.78
2019-05-26T09:52:23.328Z,988.78
2019-05-26T09:53:23.473Z,988.74
2019-05-26T09:54:23.608Z,988.73
2019-05-26T09:55:23.745Z,988.72
2019-05-26T09:56:23.876Z,988.69
2019-05-26T09:57:24.008Z,988.81
2019-05-26T09:58:24.182Z,988.64
2019-05-26T09:59:24.302Z,988.82
2019-05-26T10:00:24.433Z,988.69
2019-05-26T10:01:24.569Z,988.67
2019-05-26T10:02:24.742Z,988.73
2019-05-26T10:03:24.862Z,988.75
2019-05-26T10:04:24.996Z,988.70
2019-05-26T10:05:25.136Z,988.75
2019-05-26T10:06:25.297Z,988.73
2019-05-26T10:07:25.422Z,988.76
2019-05-26T10:08:25.558Z,988.78
2019-05-26T10:09:25.709Z,988.82
2019-05-26T10:10:25.847Z,988.73
2019-05-26T10:11:26.008Z,988.87
2019-05-26T10:12:26.190Z,988.70
2019-05-26T10:13:31.793Z,988.71
2019-05-26T10:14:26.444Z,988.67
2019-05-26T10:15:26.646Z,988.70
2019-05-26T10:16:26.649Z,988.65
2019-05-26T10:17:26.793Z,988.68
2019-05-26T10:18:26.925Z,988.76
2019-05-26T10:19:27.054Z,988.67
2019-05-26T10:20:27.195Z,988.67
2019-05-26T10:21:27.331Z,988.68
2019-05-26T10:22:27.475Z,988.72
2019-05-26T10:23:27.605Z,988.71
2019-05-26T10:24:27.743Z,988.66
2019-05-26T10:25:27.890Z,988.74
2019-05-26T10:26:27.994Z,988.68
2019-05-26T10:27:28.128Z,988.75
2019-05-26T10:28:28.269Z,988.63
2019-05-26T10:29:28.424Z,988.62
2019-05-26T10:30:28.550Z,988.68
2019-05-26T10:31:28.686Z,988.79
2019-05-26T10:32:28.836Z,988.59
2019-05-26T10:33:28.958Z,988.60
2019-05-26T10:34:29.083Z,988.67
2019-05-26T10:35:29.215Z,988.68
2019-05-26T10:36:29.345Z,988.73
2019-05-26T10:37:29.482Z,989.02
2019-05-26T10:38:29.617Z,989.01
2019-05-26T10:39:29.753Z,988.83
2019-05-26T10:40:29.893Z,988.69
2019-05-26T10:41:30.022Z,988.62
2019-05-26T10:42:30.165Z,988.62
2019-05-26T10:43:30.306Z,988.57
2019-05-26T10:44:30.434Z,988.56
2019-05-26T10:45:34.145Z,988.64
2019-05-26T10:46:30.663Z,988.75
2019-05-26T10:47:30.801Z,988.60
2019-05-26T10:48:30.957Z,988.54
2019-05-26T10:49:32.016Z,988.52
2019-05-26T10:50:31.280Z,988.57
2019-05-26T10:51:31.437Z,988.63
2019-05-26T10:52:31.569Z,988.45
2019-05-26T10:53:31.698Z,988.54
2019-05-26T10:54:31.850Z,988.39
2019-05-26T10:55:31.990Z,988.44
2019-05-26T10:56:32.123Z,988.40
2019-05-26T10:57:32.246Z,988.42
2019-05-26T10:58:32.394Z,988.33
2019-05-26T10:59:32.531Z,988.33
2019-05-26T11:00:33.306Z,988.39
2019-05-26T11:01:32.804Z,988.29
2019-05-26T11:02:32.960Z,988.38
2019-05-26T11:03:33.095Z,988.30
2019-05-26T11:04:33.229Z,988.38
2019-05-26T11:05:33.374Z,988.27
2019-05-26T11:06:33.507Z,988.21
2019-05-26T11:07:33.647Z,988.55
2019-05-26T11:08:33.805Z,988.37
2019-05-26T11:09:33.924Z,988.50
2019-05-26T11:10:34.073Z,988.51
2019-05-26T11:11:34.214Z,988.35
2019-05-26T11:12:34.382Z,988.36
2019-05-26T11:13:34.515Z,988.51
2019-05-26T11:14:34.649Z,988.34
2019-05-26T11:15:34.837Z,988.42
2019-05-26T11:16:34.946Z,988.25
2019-05-26T11:17:35.084Z,988.18
2019-05-26T11:18:35.216Z,988.30
2019-05-26T11:19:35.378Z,988.33
2019-05-26T11:20:35.517Z,988.32
2019-05-26T11:21:35.653Z,988.24
2019-05-26T11:22:35.803Z,988.30
2019-05-26T11:23:35.938Z,988.19
2019-05-26T11:24:36.057Z,988.19
2019-05-26T11:25:36.210Z,988.17
2019-05-26T11:26:36.358Z,988.19
2019-05-26T11:27:36.485Z,988.17
2019-05-26T11:28:36.620Z,988.19
2019-05-26T11:31:08.861Z,988.16
2019-05-26T11:32:09.008Z,988.11
2019-05-26T11:33:09.138Z,988.05
2019-05-26T11:34:09.280Z,988.16
2019-05-26T11:35:09.409Z,988.08
2019-05-26T11:36:09.548Z,988.03
2019-05-26T11:37:09.678Z,987.99
2019-05-26T11:38:09.821Z,988.02
2019-05-26T11:39:09.951Z,988.11
2019-05-26T11:40:10.086Z,988.13
2019-05-26T11:41:10.236Z,988.00
2019-05-26T11:42:13.292Z,988.16
2019-05-26T11:43:16.797Z,988.12
2019-05-26T11:44:18.101Z,987.98
2019-05-26T11:45:10.771Z,988.04
2019-05-26T11:46:10.904Z,988.00
2019-05-26T11:47:11.053Z,987.99
2019-05-26T11:48:11.188Z,988.02
2019-05-26T11:49:11.315Z,987.94
2019-05-26T11:50:11.451Z,987.96
2019-05-26T11:51:11.615Z,987.90
2019-05-26T11:52:11.730Z,987.99
2019-05-26T11:53:11.867Z,987.83
2019-05-26T11:54:11.985Z,987.96
2019-05-26T11:55:12.133Z,987.94
2019-05-26T11:56:12.274Z,987.86
2019-05-26T11:57:12.407Z,987.82
2019-05-26T11:58:12.543Z,987.96
2019-05-26T11:59:12.681Z,987.83
2019-05-26T12:00:13.072Z,987.81
2019-05-26T12:01:12.936Z,987.79
2019-05-26T12:02:13.073Z,987.89
2019-05-26T12:03:13.210Z,987.76
2019-05-26T12:04:13.389Z,987.82
2019-05-26T12:05:17.263Z,987.80
2019-05-26T12:06:13.662Z,987.83
2019-05-26T12:07:13.827Z,987.75
2019-05-26T12:11:02.405Z,987.82
2019-05-26T12:11:41.527Z,987.80
2019-05-26T12:12:41.657Z,987.73
2019-05-26T12:13:41.801Z,987.74
2019-05-26T12:14:41.917Z,987.73
2019-05-26T12:15:42.055Z,987.68
2019-05-26T12:16:42.251Z,987.69
2019-05-26T12:17:42.255Z,987.69
2019-05-26T12:18:42.397Z,987.65
2019-05-26T12:19:42.534Z,987.82
2019-05-26T12:20:42.694Z,987.68
2019-05-26T12:21:42.811Z,987.67
2019-05-26T12:22:42.945Z,987.76
2019-05-26T12:23:43.081Z,987.64
2019-05-26T12:24:43.661Z,987.64
2019-05-26T12:25:43.321Z,987.59
2019-05-26T12:26:43.446Z,987.59
2019-05-26T12:27:43.586Z,987.62
2019-05-26T12:28:44.257Z,987.57
2019-05-26T12:29:43.907Z,987.67
2019-05-26T12:30:44.041Z,987.57
2019-05-26T12:31:44.178Z,987.58
2019-05-26T12:32:44.356Z,987.71
2019-05-26T12:33:44.444Z,987.57